CZBF

Details ICAO CZBF (ZBF)
Name BATHURST
Region Canada
Timezone America/Moncton (UTC-3.0)
Plans Departing 13
Arriving 11
Stats Elevation 193 ft / 59 m (AMSL)
Location 47.629641° -65.738968°
Runways 1
Magnetic Variation 17.850° W
Sunrise 2018-05-26 08:35:13 UTC / 2018-05-26 05:35:13 Local
Sunset 2018-05-27 00:07:41 UTC / 2018-05-26 21:07:41 Local
Advertisement - Login to hide

Runways

ID Width Length Bearing (true) Bearing (mag) Surface Threshold Offset Overrun Length
10 100 ft / 30 m 4,489 ft / 1,368 m 81.93° 99.78° Asphalt 0 ft / 0 m 0 ft / 0 m
28 100 ft / 30 m 4,489 ft / 1,368 m 261.95° 279.80° Asphalt 0 ft / 0 m 0 ft / 0 m

Map

Weather


0- 5 10 15 20 25 30 35+ Temperature / ° C

Clouds and Precipitation
Forecast for 2018-05-26 00:00 UTC. Updated 5 hours ago

Ground ~20,000 ft ~40,000 ft Winds

METAR

CZBF 260400Z 08004KT 050V160 15SM BKN020 08/05 A2964 RMK SC7 SLP040

TAF

TAF CZBF 251938Z 2520/2603 29010KT P6SM -SHRA BKN040 BECMG 2523/2601 VRB03KT RMK NXT FCST WILL BE ISSUED AT 260845Z

Frequencies

Unicom 122.80 MHz CTAF/UNICOM
Warning: Do not use this data for real-world aviation or navigation. No guarantee of current accuracy is given.